KNGP/NGP METAR and TAF weather

Enter ICAO airport designator
Station Type Date Time Source
KNGP METAR 2020/01/20 18:56 UTC NOAA

KNGP 201856Z AUTO 04012KT 10SM CLR 16/02 A3053 RMK AO2 SLP337 T01610022


Station Type Date Time Source
KNGP Decoded METAR 2020/01/20 18:56 UTC NOAA

CORPUS CHRISTI NAVAL AIR STN, TX, United States (KNGP) 27-41N 097-17W
Jan 20, 2020 - 01:56 PM EST / 2020.01.20 1856 UTC
Wind: from the NE (040 degrees) at 14 MPH (12 KT):0
Visibility: 10 mile(s):0
Sky conditions: clear
Temperature: 61.0 F (16.1 C)
Dew Point: 36.0 F (2.2 C)
Relative Humidity: 39%
Pressure (altimeter): 30.53 in. Hg (1033 hPa)
ob: KNGP 201856Z AUTO 04012KT 10SM CLR 16/02 A3053 RMK AO2 SLP337 T01610022
cycle: 19

Station Type Date Time Source
KNGP TAF 2020/01/20 15:26 UTC NOAA

TAF KNGP 2015/2115 03015KT 9999 OVC090 QNH3042INS
BECMG 2018/2020 VRB06KT 9999 FEW080 QNH3040INS
BECMG 2104/2106 VRB06KT 9999 FEW080 BKN100 QNH3040INS AUTOMATED SENSOR METWATCH 2015 TIL 2207 T11/2015Z T15/2021Z FN00189

Example: see airport list